sensor_id;sensor_type;location;lat;lon;timestamp;P1;durP1;ratioP1;P2;durP2;ratioP2
31043;SDS011;17710;52.520;13.352;2023-06-22T00:02:21;12.13;;;9.43;;
31043;SDS011;17710;52.520;13.352;2023-06-22T00:04:47;10.82;;;9.70;;
31043;SDS011;17710;52.520;13.352;2023-06-22T00:07:14;9.55;;;8.50;;
31043;SDS011;17710;52.520;13.352;2023-06-22T00:09:40;10.32;;;8.57;;
31043;SDS011;17710;52.520;13.352;2023-06-22T00:12:08;10.55;;;8.35;;
31043;SDS011;17710;52.520;13.352;2023-06-22T00:14:34;13.38;;;8.38;;
31043;SDS011;17710;52.520;13.352;2023-06-22T00:17:01;13.55;;;8.50;;
31043;SDS011;17710;52.520;13.352;2023-06-22T00:19:27;9.30;;;8.32;;
31043;SDS011;17710;52.520;13.352;2023-06-22T00:21:54;12.00;;;9.43;;
31043;SDS011;17710;52.520;13.352;2023-06-22T00:24:21;10.18;;;7.90;;
31043;SDS011;17710;52.520;13.352;2023-06-22T00:26:48;10.13;;;8.00;;
31043;SDS011;17710;52.520;13.352;2023-06-22T00:29:16;9.77;;;8.65;;
31043;SDS011;17710;52.520;13.352;2023-06-22T00:31:43;10.02;;;8.15;;
31043;SDS011;17710;52.520;13.352;2023-06-22T00:34:10;12.25;;;9.25;;
31043;SDS011;17710;52.520;13.352;2023-06-22T00:36:36;10.70;;;8.95;;
31043;SDS011;17710;52.520;13.352;2023-06-22T00:39:05;11.15;;;9.60;;
31043;SDS011;17710;52.520;13.352;2023-06-22T00:41:32;11.40;;;8.57;;
31043;SDS011;17710;52.520;13.352;2023-06-22T00:43:59;9.20;;;8.18;;
31043;SDS011;17710;52.520;13.352;2023-06-22T00:46:27;9.38;;;8.45;;
31043;SDS011;17710;52.520;13.352;2023-06-22T00:48:54;8.85;;;7.95;;
31043;SDS011;17710;52.520;13.352;2023-06-22T00:51:22;12.13;;;8.75;;
31043;SDS011;17710;52.520;13.352;2023-06-22T00:53:49;10.00;;;8.43;;
31043;SDS011;17710;52.520;13.352;2023-06-22T00:56:16;9.93;;;8.15;;
31043;SDS011;17710;52.520;13.352;2023-06-22T00:58:44;11.43;;;8.57;;
31043;SDS011;17710;52.520;13.352;2023-06-22T01:01:12;11.82;;;8.32;;
31043;SDS011;17710;52.520;13.352;2023-06-22T01:03:40;9.73;;;8.40;;
31043;SDS011;17710;52.520;13.352;2023-06-22T01:06:07;8.93;;;8.02;;
31043;SDS011;17710;52.520;13.352;2023-06-22T01:08:38;10.07;;;9.02;;
31043;SDS011;17710;52.520;13.352;2023-06-22T01:11:10;12.52;;;8.45;;
31043;SDS011;17710;52.520;13.352;2023-06-22T01:13:41;9.38;;;8.48;;
31043;SDS011;17710;52.520;13.352;2023-06-22T01:16:16;9.52;;;7.63;;
31043;SDS011;17710;52.520;13.352;2023-06-22T01:18:50;8.57;;;7.70;;
31043;SDS011;17710;52.520;13.352;2023-06-22T01:21:21;10.55;;;8.63;;
31043;SDS011;17710;52.520;13.352;2023-06-22T01:23:51;8.55;;;7.65;;
31043;SDS011;17710;52.520;13.352;2023-06-22T01:26:27;11.23;;;9.10;;
31043;SDS011;17710;52.520;13.352;2023-06-22T01:29:02;8.75;;;7.88;;
31043;SDS011;17710;52.520;13.352;2023-06-22T01:31:32;9.13;;;8.18;;
31043;SDS011;17710;52.520;13.352;2023-06-22T01:34:00;9.77;;;8.32;;
31043;SDS011;17710;52.520;13.352;2023-06-22T01:36:29;10.13;;;9.05;;
31043;SDS011;17710;52.520;13.352;2023-06-22T01:38:57;10.63;;;8.95;;
31043;SDS011;17710;52.520;13.352;2023-06-22T01:41:25;9.32;;;8.30;;
31043;SDS011;17710;52.520;13.352;2023-06-22T01:43:54;10.30;;;8.52;;
31043;SDS011;17710;52.520;13.352;2023-06-22T01:46:23;14.25;;;9.07;;
31043;SDS011;17710;52.520;13.352;2023-06-22T01:48:50;11.20;;;9.40;;
31043;SDS011;17710;52.520;13.352;2023-06-22T01:51:16;10.55;;;8.25;;
31043;SDS011;17710;52.520;13.352;2023-06-22T01:53:43;14.23;;;8.27;;
31043;SDS011;17710;52.520;13.352;2023-06-22T01:56:10;13.60;;;9.38;;
31043;SDS011;17710;52.520;13.352;2023-06-22T01:58:40;11.45;;;8.50;;
31043;SDS011;17710;52.520;13.352;2023-06-22T02:01:13;11.40;;;8.52;;
31043;SDS011;17710;52.520;13.352;2023-06-22T02:03:50;11.02;;;8.40;;
31043;SDS011;17710;52.520;13.352;2023-06-22T02:06:23;10.98;;;8.45;;
31043;SDS011;17710;52.520;13.352;2023-06-22T02:08:53;10.45;;;9.35;;
31043;SDS011;17710;52.520;13.352;2023-06-22T02:11:25;12.95;;;9.90;;
31043;SDS011;17710;52.520;13.352;2023-06-22T02:13:53;15.13;;;10.52;;
31043;SDS011;17710;52.520;13.352;2023-06-22T02:16:21;13.65;;;10.07;;
31043;SDS011;17710;52.520;13.352;2023-06-22T02:18:50;10.98;;;9.88;;
31043;SDS011;17710;52.520;13.352;2023-06-22T02:21:17;11.25;;;9.88;;
31043;SDS011;17710;52.520;13.352;2023-06-22T02:23:44;12.60;;;9.82;;
31043;SDS011;17710;52.520;13.352;2023-06-22T02:26:10;13.75;;;9.55;;
31043;SDS011;17710;52.520;13.352;2023-06-22T02:28:37;11.57;;;8.85;;
31043;SDS011;17710;52.520;13.352;2023-06-22T02:31:04;13.77;;;9.73;;
31043;SDS011;17710;52.520;13.352;2023-06-22T02:33:30;15.68;;;10.13;;
31043;SDS011;17710;52.520;13.352;2023-06-22T02:35:58;11.18;;;9.98;;
31043;SDS011;17710;52.520;13.352;2023-06-22T02:38:24;10.55;;;9.13;;
31043;SDS011;17710;52.520;13.352;2023-06-22T02:40:51;12.98;;;10.02;;
31043;SDS011;17710;52.520;13.352;2023-06-22T02:43:17;13.43;;;9.77;;
31043;SDS011;17710;52.520;13.352;2023-06-22T02:45:44;11.23;;;9.90;;
31043;SDS011;17710;52.520;13.352;2023-06-22T02:48:10;11.75;;;10.07;;
31043;SDS011;17710;52.520;13.352;2023-06-22T02:50:37;11.38;;;10.05;;
31043;SDS011;17710;52.520;13.352;2023-06-22T02:53:04;16.33;;;11.07;;
31043;SDS011;17710;52.520;13.352;2023-06-22T02:55:31;13.15;;;11.05;;
31043;SDS011;17710;52.520;13.352;2023-06-22T02:57:57;18.20;;;10.57;;
31043;SDS011;17710;52.520;13.352;2023-06-22T03:00:24;16.10;;;12.00;;
31043;SDS011;17710;52.520;13.352;2023-06-22T03:02:55;16.08;;;12.60;;
31043;SDS011;17710;52.520;13.352;2023-06-22T03:05:22;16.27;;;12.18;;
31043;SDS011;17710;52.520;13.352;2023-06-22T03:07:49;13.68;;;11.00;;
31043;SDS011;17710;52.520;13.352;2023-06-22T03:10:17;13.23;;;11.82;;
31043;SDS011;17710;52.520;13.352;2023-06-22T03:12:43;14.43;;;12.02;;
31043;SDS011;17710;52.520;13.352;2023-06-22T03:15:10;12.55;;;11.25;;
31043;SDS011;17710;52.520;13.352;2023-06-22T03:17:38;16.50;;;12.38;;
31043;SDS011;17710;52.520;13.352;2023-06-22T03:20:06;12.98;;;11.68;;
31043;SDS011;17710;52.520;13.352;2023-06-22T03:22:35;16.83;;;12.02;;
31043;SDS011;17710;52.520;13.352;2023-06-22T03:25:02;13.98;;;10.00;;
31043;SDS011;17710;52.520;13.352;2023-06-22T03:27:30;14.85;;;10.95;;
31043;SDS011;17710;52.520;13.352;2023-06-22T03:29:57;12.95;;;10.77;;
31043;SDS011;17710;52.520;13.352;2023-06-22T03:32:23;15.82;;;10.65;;
31043;SDS011;17710;52.520;13.352;2023-06-22T03:34:52;15.10;;;10.45;;
31043;SDS011;17710;52.520;13.352;2023-06-22T03:37:19;13.23;;;10.50;;
31043;SDS011;17710;52.520;13.352;2023-06-22T03:39:45;13.48;;;10.73;;
31043;SDS011;17710;52.520;13.352;2023-06-22T03:42:12;11.32;;;9.82;;
31043;SDS011;17710;52.520;13.352;2023-06-22T03:44:39;10.77;;;9.48;;
31043;SDS011;17710;52.520;13.352;2023-06-22T03:47:06;13.65;;;11.07;;
31043;SDS011;17710;52.520;13.352;2023-06-22T03:49:33;12.88;;;9.88;;
31043;SDS011;17710;52.520;13.352;2023-06-22T03:52:00;11.65;;;9.27;;
31043;SDS011;17710;52.520;13.352;2023-06-22T03:54:27;10.50;;;8.80;;
31043;SDS011;17710;52.520;13.352;2023-06-22T03:56:55;11.07;;;9.20;;
31043;SDS011;17710;52.520;13.352;2023-06-22T03:59:22;10.90;;;9.02;;
31043;SDS011;17710;52.520;13.352;2023-06-22T04:01:49;11.73;;;8.63;;
31043;SDS011;17710;52.520;13.352;2023-06-22T04:04:17;9.70;;;8.23;;
31043;SDS011;17710;52.520;13.352;2023-06-22T04:06:43;13.60;;;9.32;;
31043;SDS011;17710;52.520;13.352;2023-06-22T04:09:10;13.82;;;7.95;;
31043;SDS011;17710;52.520;13.352;2023-06-22T04:11:37;8.60;;;7.75;;
31043;SDS011;17710;52.520;13.352;2023-06-22T04:14:03;8.80;;;6.65;;
31043;SDS011;17710;52.520;13.352;2023-06-22T04:16:30;9.98;;;6.65;;
31043;SDS011;17710;52.520;13.352;2023-06-22T04:18:57;8.13;;;6.55;;
31043;SDS011;17710;52.520;13.352;2023-06-22T04:21:24;8.98;;;6.25;;
31043;SDS011;17710;52.520;13.352;2023-06-22T04:23:50;11.38;;;6.38;;
31043;SDS011;17710;52.520;13.352;2023-06-22T04:26:16;10.02;;;6.90;;
31043;SDS011;17710;52.520;13.352;2023-06-22T04:28:45;9.52;;;6.35;;
31043;SDS011;17710;52.520;13.352;2023-06-22T04:31:16;8.05;;;5.88;;
31043;SDS011;17710;52.520;13.352;2023-06-22T04:33:43;8.13;;;6.43;;
31043;SDS011;17710;52.520;13.352;2023-06-22T04:36:11;8.20;;;6.15;;
31043;SDS011;17710;52.520;13.352;2023-06-22T04:38:38;9.02;;;6.50;;
31043;SDS011;17710;52.520;13.352;2023-06-22T04:41:04;8.43;;;5.97;;
31043;SDS011;17710;52.520;13.352;2023-06-22T04:43:31;11.50;;;6.32;;
31043;SDS011;17710;52.520;13.352;2023-06-22T04:46:00;9.82;;;6.53;;
31043;SDS011;17710;52.520;13.352;2023-06-22T05:05:00;8.95;;;4.50;;
31043;SDS011;17710;52.520;13.352;2023-06-22T05:07:32;10.48;;;4.38;;
31043;SDS011;17710;52.520;13.352;2023-06-22T05:09:58;8.77;;;4.05;;
31043;SDS011;17710;52.520;13.352;2023-06-22T05:12:25;8.85;;;4.20;;
31043;SDS011;17710;52.520;13.352;2023-06-22T05:14:51;4.43;;;3.70;;
31043;SDS011;17710;52.520;13.352;2023-06-22T05:17:18;9.07;;;4.18;;
31043;SDS011;17710;52.520;13.352;2023-06-22T05:19:44;7.68;;;3.67;;
31043;SDS011;17710;52.520;13.352;2023-06-22T05:22:14;9.05;;;3.70;;
31043;SDS011;17710;52.520;13.352;2023-06-22T05:24:41;8.13;;;3.33;;
31043;SDS011;17710;52.520;13.352;2023-06-22T05:27:08;16.17;;;4.07;;
31043;SDS011;17710;52.520;13.352;2023-06-22T05:29:34;10.25;;;3.50;;
31043;SDS011;17710;52.520;13.352;2023-06-22T05:32:01;3.88;;;3.45;;
31043;SDS011;17710;52.520;13.352;2023-06-22T05:34:28;5.82;;;3.63;;
31043;SDS011;17710;52.520;13.352;2023-06-22T05:36:54;6.72;;;3.88;;
31043;SDS011;17710;52.520;13.352;2023-06-22T05:39:22;17.98;;;4.20;;
31043;SDS011;17710;52.520;13.352;2023-06-22T05:41:48;7.68;;;3.97;;
31043;SDS011;17710;52.520;13.352;2023-06-22T05:44:15;9.90;;;3.95;;
31043;SDS011;17710;52.520;13.352;2023-06-22T05:46:42;6.65;;;3.60;;
31043;SDS011;17710;52.520;13.352;2023-06-22T05:49:11;6.15;;;3.30;;
31043;SDS011;17710;52.520;13.352;2023-06-22T05:51:38;5.05;;;3.38;;
31043;SDS011;17710;52.520;13.352;2023-06-22T05:54:04;8.85;;;4.07;;
31043;SDS011;17710;52.520;13.352;2023-06-22T05:56:32;9.55;;;3.72;;
31043;SDS011;17710;52.520;13.352;2023-06-22T05:58:59;5.47;;;3.30;;
31043;SDS011;17710;52.520;13.352;2023-06-22T06:01:25;6.35;;;4.18;;
31043;SDS011;17710;52.520;13.352;2023-06-22T06:03:51;7.78;;;3.78;;
31043;SDS011;17710;52.520;13.352;2023-06-22T06:06:18;8.73;;;4.30;;
31043;SDS011;17710;52.520;13.352;2023-06-22T06:08:46;12.27;;;4.47;;
31043;SDS011;17710;52.520;13.352;2023-06-22T06:11:12;12.05;;;4.65;;
31043;SDS011;17710;52.520;13.352;2023-06-22T06:13:40;9.13;;;4.57;;
31043;SDS011;17710;52.520;13.352;2023-06-22T06:16:06;9.82;;;3.78;;
31043;SDS011;17710;52.520;13.352;2023-06-22T06:18:32;6.32;;;4.00;;
31043;SDS011;17710;52.520;13.352;2023-06-22T06:20:59;6.80;;;3.83;;
31043;SDS011;17710;52.520;13.352;2023-06-22T06:23:25;8.52;;;3.78;;
31043;SDS011;17710;52.520;13.352;2023-06-22T06:25:52;5.88;;;3.47;;
31043;SDS011;17710;52.520;13.352;2023-06-22T06:28:18;6.95;;;3.50;;
31043;SDS011;17710;52.520;13.352;2023-06-22T06:30:45;4.05;;;3.10;;
31043;SDS011;17710;52.520;13.352;2023-06-22T06:33:12;6.88;;;3.08;;
31043;SDS011;17710;52.520;13.352;2023-06-22T06:35:39;5.22;;;3.30;;
31043;SDS011;17710;52.520;13.352;2023-06-22T06:38:05;4.13;;;3.38;;
31043;SDS011;17710;52.520;13.352;2023-06-22T06:40:31;7.70;;;3.33;;
31043;SDS011;17710;52.520;13.352;2023-06-22T06:42:57;6.47;;;4.00;;
31043;SDS011;17710;52.520;13.352;2023-06-22T06:45:24;10.82;;;3.33;;
31043;SDS011;17710;52.520;13.352;2023-06-22T06:47:54;7.20;;;3.30;;
31043;SDS011;17710;52.520;13.352;2023-06-22T06:50:21;5.32;;;3.13;;
31043;SDS011;17710;52.520;13.352;2023-06-22T06:52:47;4.53;;;3.05;;
31043;SDS011;17710;52.520;13.352;2023-06-22T06:55:15;5.35;;;2.85;;
31043;SDS011;17710;52.520;13.352;2023-06-22T06:57:41;4.05;;;3.03;;
31043;SDS011;17710;52.520;13.352;2023-06-22T07:00:09;5.32;;;2.97;;
31043;SDS011;17710;52.520;13.352;2023-06-22T07:02:38;6.88;;;3.20;;
31043;SDS011;17710;52.520;13.352;2023-06-22T07:05:08;4.80;;;2.92;;
31043;SDS011;17710;52.520;13.352;2023-06-22T07:07:34;7.72;;;2.92;;
31043;SDS011;17710;52.520;13.352;2023-06-22T07:10:02;4.95;;;2.90;;
31043;SDS011;17710;52.520;13.352;2023-06-22T07:12:29;3.50;;;2.63;;
31043;SDS011;17710;52.520;13.352;2023-06-22T07:14:57;5.60;;;2.85;;
31043;SDS011;17710;52.520;13.352;2023-06-22T07:17:28;4.65;;;3.25;;
31043;SDS011;17710;52.520;13.352;2023-06-22T07:19:54;7.57;;;3.15;;
31043;SDS011;17710;52.520;13.352;2023-06-22T07:22:22;6.70;;;2.90;;
31043;SDS011;17710;52.520;13.352;2023-06-22T07:24:48;7.75;;;2.78;;
31043;SDS011;17710;52.520;13.352;2023-06-22T07:27:15;15.50;;;4.00;;
31043;SDS011;17710;52.520;13.352;2023-06-22T07:29:44;3.78;;;2.97;;
31043;SDS011;17710;52.520;13.352;2023-06-22T07:32:10;21.05;;;4.38;;
31043;SDS011;17710;52.520;13.352;2023-06-22T07:34:36;8.15;;;3.17;;
31043;SDS011;17710;52.520;13.352;2023-06-22T07:37:03;5.05;;;2.80;;
31043;SDS011;17710;52.520;13.352;2023-06-22T07:39:31;4.57;;;2.58;;
31043;SDS011;17710;52.520;13.352;2023-06-22T07:41:58;3.40;;;2.33;;
31043;SDS011;17710;52.520;13.352;2023-06-22T07:44:24;3.85;;;2.75;;
31043;SDS011;17710;52.520;13.352;2023-06-22T07:46:51;9.43;;;2.88;;
31043;SDS011;17710;52.520;13.352;2023-06-22T07:49:17;6.20;;;2.47;;
31043;SDS011;17710;52.520;13.352;2023-06-22T07:51:43;7.28;;;2.30;;
31043;SDS011;17710;52.520;13.352;2023-06-22T07:54:10;3.97;;;1.90;;
31043;SDS011;17710;52.520;13.352;2023-06-22T07:56:38;4.93;;;2.60;;
31043;SDS011;17710;52.520;13.352;2023-06-22T07:59:04;2.38;;;1.83;;
31043;SDS011;17710;52.520;13.352;2023-06-22T08:01:31;6.93;;;2.10;;
31043;SDS011;17710;52.520;13.352;2023-06-22T08:03:57;10.13;;;2.78;;
31043;SDS011;17710;52.520;13.352;2023-06-22T08:06:23;9.10;;;2.72;;
31043;SDS011;17710;52.520;13.352;2023-06-22T08:08:50;5.60;;;3.35;;
31043;SDS011;17710;52.520;13.352;2023-06-22T08:11:19;4.53;;;2.05;;
31043;SDS011;17710;52.520;13.352;2023-06-22T08:13:48;3.53;;;2.25;;
31043;SDS011;17710;52.520;13.352;2023-06-22T08:16:15;2.40;;;2.20;;
31043;SDS011;17710;52.520;13.352;2023-06-22T08:18:41;3.03;;;2.17;;
31043;SDS011;17710;52.520;13.352;2023-06-22T08:21:07;12.00;;;2.55;;
31043;SDS011;17710;52.520;13.352;2023-06-22T08:23:34;4.20;;;2.08;;
31043;SDS011;17710;52.520;13.352;2023-06-22T08:26:01;7.32;;;2.40;;
31043;SDS011;17710;52.520;13.352;2023-06-22T08:28:27;3.33;;;2.13;;
31043;SDS011;17710;52.520;13.352;2023-06-22T08:30:55;3.53;;;1.95;;
31043;SDS011;17710;52.520;13.352;2023-06-22T08:33:21;4.65;;;2.05;;
31043;SDS011;17710;52.520;13.352;2023-06-22T08:35:53;7.82;;;2.58;;
31043;SDS011;17710;52.520;13.352;2023-06-22T08:38:19;7.25;;;2.20;;
31043;SDS011;17710;52.520;13.352;2023-06-22T08:40:46;14.65;;;2.85;;
31043;SDS011;17710;52.520;13.352;2023-06-22T08:43:12;5.18;;;2.10;;
31043;SDS011;17710;52.520;13.352;2023-06-22T08:45:39;5.25;;;2.53;;
31043;SDS011;17710;52.520;13.352;2023-06-22T08:48:06;4.88;;;2.20;;
31043;SDS011;17710;52.520;13.352;2023-06-22T08:50:33;4.70;;;2.63;;
31043;SDS011;17710;52.520;13.352;2023-06-22T08:52:59;5.95;;;2.25;;
31043;SDS011;17710;52.520;13.352;2023-06-22T08:55:25;8.80;;;3.22;;
31043;SDS011;17710;52.520;13.352;2023-06-22T08:57:52;10.68;;;2.70;;
31043;SDS011;17710;52.520;13.352;2023-06-22T09:00:18;4.38;;;2.40;;
31043;SDS011;17710;52.520;13.352;2023-06-22T09:02:46;4.38;;;2.78;;
31043;SDS011;17710;52.520;13.352;2023-06-22T09:05:14;5.57;;;2.28;;
31043;SDS011;17710;52.520;13.352;2023-06-22T09:07:41;9.55;;;2.60;;
31043;SDS011;17710;52.520;13.352;2023-06-22T09:10:08;5.18;;;2.88;;
31043;SDS011;17710;52.520;13.352;2023-06-22T09:12:34;5.43;;;2.33;;
31043;SDS011;17710;52.520;13.352;2023-06-22T09:15:03;131.55;;;9.95;;
31043;SDS011;17710;52.520;13.352;2023-06-22T09:17:31;11.60;;;3.20;;
31043;SDS011;17710;52.520;13.352;2023-06-22T09:19:59;3.72;;;2.60;;
31043;SDS011;17710;52.520;13.352;2023-06-22T09:22:27;27.13;;;3.65;;
31043;SDS011;17710;52.520;13.352;2023-06-22T09:24:54;5.32;;;2.90;;
31043;SDS011;17710;52.520;13.352;2023-06-22T09:27:20;7.35;;;3.55;;
31043;SDS011;17710;52.520;13.352;2023-06-22T09:29:47;8.00;;;3.70;;
31043;SDS011;17710;52.520;13.352;2023-06-22T09:32:13;5.00;;;2.55;;
31043;SDS011;17710;52.520;13.352;2023-06-22T09:34:40;9.57;;;3.10;;
31043;SDS011;17710;52.520;13.352;2023-06-22T09:37:06;6.90;;;2.72;;
31043;SDS011;17710;52.520;13.352;2023-06-22T09:39:34;5.18;;;2.67;;
31043;SDS011;17710;52.520;13.352;2023-06-22T09:42:01;5.68;;;2.42;;
31043;SDS011;17710;52.520;13.352;2023-06-22T09:44:27;9.00;;;2.80;;
31043;SDS011;17710;52.520;13.352;2023-06-22T09:46:54;6.45;;;2.40;;
31043;SDS011;17710;52.520;13.352;2023-06-22T09:49:20;8.82;;;2.78;;
31043;SDS011;17710;52.520;13.352;2023-06-22T09:51:46;3.38;;;2.25;;
31043;SDS011;17710;52.520;13.352;2023-06-22T09:54:14;6.20;;;2.85;;
31043;SDS011;17710;52.520;13.352;2023-06-22T09:56:42;35.00;;;4.38;;
31043;SDS011;17710;52.520;13.352;2023-06-22T09:59:08;4.68;;;3.05;;
31043;SDS011;17710;52.520;13.352;2023-06-22T10:01:35;5.53;;;2.58;;
31043;SDS011;17710;52.520;13.352;2023-06-22T10:04:01;7.28;;;2.97;;
31043;SDS011;17710;52.520;13.352;2023-06-22T10:06:28;3.05;;;2.75;;
31043;SDS011;17710;52.520;13.352;2023-06-22T10:08:55;3.08;;;2.78;;
31043;SDS011;17710;52.520;13.352;2023-06-22T10:11:21;5.38;;;2.53;;
31043;SDS011;17710;52.520;13.352;2023-06-22T10:13:53;5.07;;;2.92;;
31043;SDS011;17710;52.520;13.352;2023-06-22T10:16:19;8.05;;;3.05;;
31043;SDS011;17710;52.520;13.352;2023-06-22T10:18:46;4.38;;;3.15;;
31043;SDS011;17710;52.520;13.352;2023-06-22T10:21:12;6.15;;;2.80;;
31043;SDS011;17710;52.520;13.352;2023-06-22T10:23:39;3.10;;;2.63;;
31043;SDS011;17710;52.520;13.352;2023-06-22T10:26:05;3.55;;;2.95;;
31043;SDS011;17710;52.520;13.352;2023-06-22T10:28:31;3.70;;;3.33;;
31043;SDS011;17710;52.520;13.352;2023-06-22T10:30:59;3.85;;;2.60;;
31043;SDS011;17710;52.520;13.352;2023-06-22T10:33:25;3.47;;;2.55;;
31043;SDS011;17710;52.520;13.352;2023-06-22T10:35:52;5.68;;;3.30;;
31043;SDS011;17710;52.520;13.352;2023-06-22T10:38:18;8.55;;;3.85;;
31043;SDS011;17710;52.520;13.352;2023-06-22T10:40:45;4.15;;;3.08;;
31043;SDS011;17710;52.520;13.352;2023-06-22T10:43:11;4.43;;;3.25;;
31043;SDS011;17710;52.520;13.352;2023-06-22T10:45:38;4.28;;;2.95;;
31043;SDS011;17710;52.520;13.352;2023-06-22T10:48:05;6.53;;;2.95;;
31043;SDS011;17710;52.520;13.352;2023-06-22T10:50:32;5.75;;;2.92;;
31043;SDS011;17710;52.520;13.352;2023-06-22T10:52:58;6.85;;;3.08;;
31043;SDS011;17710;52.520;13.352;2023-06-22T10:55:25;3.95;;;2.65;;
31043;SDS011;17710;52.520;13.352;2023-06-22T10:57:51;5.60;;;3.60;;
31043;SDS011;17710;52.520;13.352;2023-06-22T11:00:18;5.75;;;3.22;;
31043;SDS011;17710;52.520;13.352;2023-06-22T11:02:44;28.85;;;5.90;;
31043;SDS011;17710;52.520;13.352;2023-06-22T11:05:12;8.77;;;3.30;;
31043;SDS011;17710;52.520;13.352;2023-06-22T11:07:41;8.20;;;3.45;;
31043;SDS011;17710;52.520;13.352;2023-06-22T11:10:08;11.07;;;3.50;;
31043;SDS011;17710;52.520;13.352;2023-06-22T11:12:35;6.90;;;3.17;;
31043;SDS011;17710;52.520;13.352;2023-06-22T11:15:01;6.63;;;3.30;;
31043;SDS011;17710;52.520;13.352;2023-06-22T11:17:28;9.63;;;3.10;;
31043;SDS011;17710;52.520;13.352;2023-06-22T11:19:54;16.20;;;4.05;;
31043;SDS011;17710;52.520;13.352;2023-06-22T11:22:22;10.07;;;3.90;;
31043;SDS011;17710;52.520;13.352;2023-06-22T11:24:48;3.95;;;3.00;;
31043;SDS011;17710;52.520;13.352;2023-06-22T11:27:15;3.80;;;3.30;;
31043;SDS011;17710;52.520;13.352;2023-06-22T11:29:41;4.68;;;3.00;;
31043;SDS011;17710;52.520;13.352;2023-06-22T11:32:08;5.10;;;2.78;;
31043;SDS011;17710;52.520;13.352;2023-06-22T11:34:34;5.15;;;3.50;;
31043;SDS011;17710;52.520;13.352;2023-06-22T11:37:01;5.95;;;3.30;;
31043;SDS011;17710;52.520;13.352;2023-06-22T11:39:29;10.93;;;3.85;;
31043;SDS011;17710;52.520;13.352;2023-06-22T11:41:55;33.28;;;4.50;;
31043;SDS011;17710;52.520;13.352;2023-06-22T11:44:21;16.63;;;3.90;;
31043;SDS011;17710;52.520;13.352;2023-06-22T11:46:48;6.03;;;3.10;;
31043;SDS011;17710;52.520;13.352;2023-06-22T11:49:14;5.70;;;3.40;;
31043;SDS011;17710;52.520;13.352;2023-06-22T11:51:40;3.70;;;3.00;;
31043;SDS011;17710;52.520;13.352;2023-06-22T11:54:07;4.32;;;3.30;;
31043;SDS011;17710;52.520;13.352;2023-06-22T11:56:34;4.32;;;3.28;;
31043;SDS011;17710;52.520;13.352;2023-06-22T11:59:01;4.78;;;3.60;;
31043;SDS011;17710;52.520;13.352;2023-06-22T12:01:27;5.55;;;3.15;;
31043;SDS011;17710;52.520;13.352;2023-06-22T12:03:53;6.00;;;3.25;;
31043;SDS011;17710;52.520;13.352;2023-06-22T12:06:20;6.70;;;3.25;;
31043;SDS011;17710;52.520;13.352;2023-06-22T12:08:46;3.63;;;2.97;;
31043;SDS011;17710;52.520;13.352;2023-06-22T12:11:12;3.72;;;3.40;;
31043;SDS011;17710;52.520;13.352;2023-06-22T12:13:40;8.43;;;3.63;;
31043;SDS011;17710;52.520;13.352;2023-06-22T12:16:06;8.07;;;3.13;;
31043;SDS011;17710;52.520;13.352;2023-06-22T12:18:32;3.83;;;3.42;;
31043;SDS011;17710;52.520;13.352;2023-06-22T12:20:59;5.53;;;3.35;;
31043;SDS011;17710;52.520;13.352;2023-06-22T12:23:25;5.03;;;3.10;;
31043;SDS011;17710;52.520;13.352;2023-06-22T12:25:52;14.85;;;4.13;;
31043;SDS011;17710;52.520;13.352;2023-06-22T12:28:18;4.32;;;3.83;;
31043;SDS011;17710;52.520;13.352;2023-06-22T12:30:45;5.18;;;3.55;;
31043;SDS011;17710;52.520;13.352;2023-06-22T12:33:12;3.28;;;3.03;;
31043;SDS011;17710;52.520;13.352;2023-06-22T12:35:38;3.53;;;3.13;;
31043;SDS011;17710;52.520;13.352;2023-06-22T12:38:04;5.95;;;3.30;;
31043;SDS011;17710;52.520;13.352;2023-06-22T12:40:33;5.35;;;3.08;;
31043;SDS011;17710;52.520;13.352;2023-06-22T12:42:59;5.18;;;2.70;;
31043;SDS011;17710;52.520;13.352;2023-06-22T12:45:27;7.43;;;3.22;;
31043;SDS011;17710;52.520;13.352;2023-06-22T12:47:57;7.97;;;3.47;;
31043;SDS011;17710;52.520;13.352;2023-06-22T12:50:24;5.90;;;3.47;;
31043;SDS011;17710;52.520;13.352;2023-06-22T12:52:51;5.32;;;3.40;;
31043;SDS011;17710;52.520;13.352;2023-06-22T12:55:17;3.70;;;3.30;;
31043;SDS011;17710;52.520;13.352;2023-06-22T12:57:44;3.47;;;3.10;;
31043;SDS011;17710;52.520;13.352;2023-06-22T13:00:10;4.93;;;3.67;;
31043;SDS011;17710;52.520;13.352;2023-06-22T13:02:37;7.80;;;3.53;;
31043;SDS011;17710;52.520;13.352;2023-06-22T13:05:05;3.85;;;3.13;;
31043;SDS011;17710;52.520;13.352;2023-06-22T13:07:32;5.60;;;3.22;;
31043;SDS011;17710;52.520;13.352;2023-06-22T13:09:59;7.85;;;3.40;;
31043;SDS011;17710;52.520;13.352;2023-06-22T13:12:25;3.20;;;2.90;;
31043;SDS011;17710;52.520;13.352;2023-06-22T13:14:52;5.03;;;3.47;;
31043;SDS011;17710;52.520;13.352;2023-06-22T13:17:18;6.13;;;3.97;;
31043;SDS011;17710;52.520;13.352;2023-06-22T13:19:44;4.28;;;3.55;;
31043;SDS011;17710;52.520;13.352;2023-06-22T13:22:25;6.05;;;4.50;;
31043;SDS011;17710;52.520;13.352;2023-06-22T13:24:53;5.55;;;3.28;;
31043;SDS011;17710;52.520;13.352;2023-06-22T13:27:20;5.93;;;3.72;;
31043;SDS011;17710;52.520;13.352;2023-06-22T13:29:46;4.32;;;3.90;;
31043;SDS011;17710;52.520;13.352;2023-06-22T13:32:13;7.63;;;3.97;;
31043;SDS011;17710;52.520;13.352;2023-06-22T13:34:39;6.93;;;3.90;;
31043;SDS011;17710;52.520;13.352;2023-06-22T13:37:05;6.65;;;3.33;;
31043;SDS011;17710;52.520;13.352;2023-06-22T13:39:33;3.78;;;3.47;;
31043;SDS011;17710;52.520;13.352;2023-06-22T13:42:00;11.18;;;3.30;;
31043;SDS011;17710;52.520;13.352;2023-06-22T13:44:26;7.20;;;3.95;;
31043;SDS011;17710;52.520;13.352;2023-06-22T13:46:54;5.35;;;3.38;;
31043;SDS011;17710;52.520;13.352;2023-06-22T13:49:20;3.58;;;3.17;;
31043;SDS011;17710;52.520;13.352;2023-06-22T13:51:47;4.85;;;3.13;;
31043;SDS011;17710;52.520;13.352;2023-06-22T13:54:14;4.13;;;3.72;;
31043;SDS011;17710;52.520;13.352;2023-06-22T13:56:41;4.55;;;3.60;;
31043;SDS011;17710;52.520;13.352;2023-06-22T13:59:08;4.22;;;3.47;;
31043;SDS011;17710;52.520;13.352;2023-06-22T14:01:35;8.80;;;4.18;;
31043;SDS011;17710;52.520;13.352;2023-06-22T14:04:03;3.38;;;3.08;;
31043;SDS011;17710;52.520;13.352;2023-06-22T14:06:30;6.07;;;3.28;;
31043;SDS011;17710;52.520;13.352;2023-06-22T14:08:56;3.60;;;3.35;;
31043;SDS011;17710;52.520;13.352;2023-06-22T14:11:24;6.20;;;3.05;;
31043;SDS011;17710;52.520;13.352;2023-06-22T14:13:51;3.17;;;2.88;;
31043;SDS011;17710;52.520;13.352;2023-06-22T14:16:18;6.25;;;3.75;;
31043;SDS011;17710;52.520;13.352;2023-06-22T14:18:44;5.85;;;3.15;;
31043;SDS011;17710;52.520;13.352;2023-06-22T14:21:11;4.28;;;3.45;;
31043;SDS011;17710;52.520;13.352;2023-06-22T14:23:37;3.40;;;3.20;;
31043;SDS011;17710;52.520;13.352;2023-06-22T14:26:04;3.97;;;3.42;;
31043;SDS011;17710;52.520;13.352;2023-06-22T14:28:30;5.05;;;3.10;;
31043;SDS011;17710;52.520;13.352;2023-06-22T14:30:58;3.50;;;3.20;;
31043;SDS011;17710;52.520;13.352;2023-06-22T14:33:25;3.38;;;3.10;;
31043;SDS011;17710;52.520;13.352;2023-06-22T14:35:52;4.40;;;3.22;;
31043;SDS011;17710;52.520;13.352;2023-06-22T14:38:19;3.90;;;3.40;;
31043;SDS011;17710;52.520;13.352;2023-06-22T14:40:46;3.72;;;3.30;;
31043;SDS011;17710;52.520;13.352;2023-06-22T14:43:12;5.05;;;3.00;;
31043;SDS011;17710;52.520;13.352;2023-06-22T14:45:39;3.47;;;3.17;;